Time;durP1;ratioP1;P1;durP2;ratioP2;P2;SDS_P1;SDS_P2;PMS_P1;PMS_P2;Temp;Humidity;BMP_temperature;BMP_pressure;BME280_temperature;BME280_humidity;BME280_pressure;Samples;Min_cycle;Max_cycle;Signal;HPM_P1;HPM_P2
2022/04/12 00:00:06;;;;;;;4.45;3.20;;;1.20;99.90;;;;;;4982825;28;20089;-63
2022/04/12 00:02:40;;;;;;;10.20;3.45;;;1.10;99.90;;;;;;4971019;28;20044;-66
2022/04/12 00:05:11;;;;;;;4.22;3.00;;;1.00;99.90;;;;;;4990113;28;20042;-63
2022/04/12 00:07:56;;;;;;;8.02;3.50;;;0.90;99.90;;;;;;4981009;28;20133;-64
2022/04/12 00:10:24;;;;;;;6.18;3.22;;;0.90;99.90;;;;;;4982766;28;20045;-64
2022/04/12 00:12:50;;;;;;;9.70;3.85;;;0.80;99.90;;;;;;4979513;28;20112;-65
2022/04/12 00:15:18;;;;;;;5.88;3.83;;;0.70;99.90;;;;;;4977178;28;20042;-63
2022/04/12 00:20:30;;;;;;;12.07;4.13;;;0.60;99.90;;;;;;4978205;28;20042;-63
2022/04/12 00:22:58;;;;;;;14.60;4.15;;;0.50;99.90;;;;;;4976153;28;20061;-62
2022/04/12 00:25:26;;;;;;;10.55;4.25;;;0.50;99.90;;;;;;4983767;28;20516;-66
2022/04/12 00:27:55;;;;;;;13.00;3.72;;;0.40;99.90;;;;;;4974748;28;20066;-67
2022/04/12 00:30:23;;;;;;;8.55;4.05;;;0.30;99.90;;;;;;4975183;28;20464;-63
2022/04/12 00:32:52;;;;;;;11.65;3.63;;;0.30;99.90;;;;;;4974599;28;20515;-64
2022/04/12 00:35:21;;;;;;;15.00;4.15;;;0.30;99.90;;;;;;4983946;28;20214;-64
2022/04/12 00:37:52;;;;;;;14.77;3.63;;;0.20;99.90;;;;;;4985937;28;20133;-64
2022/04/12 00:40:20;;;;;;;8.32;3.20;;;0.20;99.90;;;;;;4983841;28;20054;-64
2022/04/12 00:42:48;;;;;;;12.63;4.03;;;0.10;99.90;;;;;;4973627;28;20137;-64
2022/04/12 00:45:15;;;;;;;11.48;4.38;;;0.10;99.90;;;;;;4979440;28;20042;-64
2022/04/12 00:47:42;;;;;;;18.65;5.05;;;0.10;99.90;;;;;;4976966;28;20101;-64
2022/04/12 00:50:12;;;;;;;9.88;4.00;;;0.10;99.90;;;;;;4977467;28;20337;-63
2022/04/12 00:52:42;;;;;;;13.18;5.05;;;0.10;99.90;;;;;;4970517;28;20054;-64
2022/04/12 00:55:10;;;;;;;6.22;3.60;;;0.10;99.90;;;;;;4975469;28;20050;-62
2022/04/12 00:57:37;;;;;;;9.13;3.55;;;0.00;99.90;;;;;;4974116;28;20045;-62
2022/04/12 01:00:07;;;;;;;11.25;5.25;;;0.00;99.90;;;;;;4981901;28;20045;-64
2022/04/12 01:02:35;;;;;;;11.13;4.80;;;0.00;99.90;;;;;;4975543;28;20046;-64
2022/04/12 01:05:03;;;;;;;7.70;3.45;;;-0.10;99.90;;;;;;4977967;28;20048;-63
2022/04/12 01:07:31;;;;;;;7.95;3.90;;;-0.20;99.90;;;;;;4973808;28;20042;-65
2022/04/12 01:09:58;;;;;;;4.32;3.13;;;-0.20;99.90;;;;;;4983642;28;20039;-62
2022/04/12 01:12:28;;;;;;;9.13;3.08;;;-0.20;99.90;;;;;;4983017;28;20104;-65
2022/04/12 01:15:09;;;;;;;10.38;3.80;;;-0.20;99.90;;;;;;4974725;28;20051;-63
2022/04/12 01:17:36;;;;;;;5.60;2.83;;;-0.30;99.90;;;;;;4973173;28;20113;-63
2022/04/12 01:20:06;;;;;;;9.63;3.92;;;-0.40;99.90;;;;;;4974266;28;20051;-65
2022/04/12 01:22:35;;;;;;;6.30;2.90;;;-0.40;99.90;;;;;;4970513;28;20046;-62
2022/04/12 01:25:04;;;;;;;10.97;3.90;;;-0.40;99.90;;;;;;4977568;28;20106;-63
2022/04/12 01:27:30;;;;;;;10.63;3.97;;;-0.40;99.90;;;;;;4970410;28;20047;-62
2022/04/12 01:29:58;;;;;;;11.60;2.90;;;-0.40;99.90;;;;;;4976029;28;20461;-63
2022/04/12 01:32:25;;;;;;;9.98;4.15;;;-0.50;99.90;;;;;;4979146;28;20055;-63
2022/04/12 01:34:52;;;;;;;8.63;2.67;;;-0.50;99.90;;;;;;4977398;28;20050;-62
2022/04/12 01:37:19;;;;;;;5.45;2.45;;;-0.50;99.90;;;;;;4967395;28;20533;-63
2022/04/12 01:39:46;;;;;;;5.65;2.70;;;-0.50;99.90;;;;;;4973746;28;20785;-62
2022/04/12 01:42:13;;;;;;;6.35;2.65;;;-0.50;99.90;;;;;;4971767;28;20437;-64
2022/04/12 01:44:40;;;;;;;11.43;3.30;;;-0.50;99.90;;;;;;4972414;28;20154;-63
2022/04/12 01:47:07;;;;;;;9.20;3.38;;;-0.50;99.90;;;;;;4972398;28;20134;-63
2022/04/12 01:49:33;;;;;;;7.60;2.45;;;-0.60;99.90;;;;;;4972020;28;20039;-64
2022/04/12 01:52:02;;;;;;;7.88;2.88;;;-0.50;99.90;;;;;;4972843;28;20617;-63
2022/04/12 01:54:29;;;;;;;4.88;3.00;;;-0.60;99.90;;;;;;4966921;28;20527;-62
2022/04/12 01:56:56;;;;;;;12.32;3.50;;;-0.60;99.90;;;;;;4971797;28;20548;-63
2022/04/12 01:59:23;;;;;;;10.02;3.83;;;-0.60;99.90;;;;;;4968490;28;20581;-62
2022/04/12 02:01:50;;;;;;;6.82;2.53;;;-0.60;99.90;;;;;;4977585;28;20366;-62
2022/04/12 02:04:17;;;;;;;9.45;3.08;;;-0.70;99.90;;;;;;4975592;28;20082;-66
2022/04/12 02:06:44;;;;;;;10.73;3.42;;;-0.70;99.90;;;;;;4977857;28;20102;-63
2022/04/12 02:09:11;;;;;;;11.95;3.00;;;-0.70;99.90;;;;;;4972657;28;20168;-63
2022/04/12 02:11:37;;;;;;;9.57;3.58;;;-0.80;99.90;;;;;;4966615;28;20401;-65
2022/04/12 02:14:06;;;;;;;4.65;2.63;;;-0.80;99.90;;;;;;4974201;28;20078;-63
2022/04/12 02:16:34;;;;;;;9.63;4.03;;;-0.80;99.90;;;;;;4973046;28;20232;-63
2022/04/12 02:19:01;;;;;;;7.40;3.17;;;-0.80;99.90;;;;;;4971410;28;20637;-63
2022/04/12 02:21:28;;;;;;;9.02;2.60;;;-0.80;99.90;;;;;;4969339;28;20045;-63
2022/04/12 02:23:55;;;;;;;4.70;2.15;;;-0.80;99.90;;;;;;4982575;28;20050;-63
2022/04/12 02:26:22;;;;;;;6.40;2.47;;;-0.90;99.90;;;;;;4970871;28;20914;-63
2022/04/12 02:28:49;;;;;;;7.05;2.88;;;-0.90;99.90;;;;;;4966485;28;20061;-62
2022/04/12 02:31:16;;;;;;;12.30;3.00;;;-0.90;99.90;;;;;;4971485;28;20495;-63
2022/04/12 02:33:43;;;;;;;19.58;3.58;;;-0.90;99.90;;;;;;4973102;28;20042;-65
2022/04/12 02:36:09;;;;;;;4.50;2.03;;;-1.00;99.90;;;;;;4973059;28;20053;-63
2022/04/12 02:38:42;;;;;;;7.50;2.78;;;-1.00;99.90;;;;;;4970772;28;20177;-63
2022/04/12 02:41:09;;;;;;;8.32;2.72;;;-1.00;99.90;;;;;;4973835;28;20138;-63
2022/04/12 02:43:36;;;;;;;4.28;2.28;;;-1.00;99.90;;;;;;4968037;28;20047;-62
2022/04/12 02:46:03;;;;;;;6.97;2.80;;;-1.00;99.90;;;;;;4966274;28;20057;-62
2022/04/12 02:48:30;;;;;;;6.47;2.63;;;-1.00;99.90;;;;;;4965884;28;20046;-65
2022/04/12 02:50:57;;;;;;;5.70;2.78;;;-1.00;99.90;;;;;;4967373;28;20054;-63
2022/04/12 02:53:24;;;;;;;5.28;2.22;;;-1.10;99.90;;;;;;4965720;28;20094;-63
2022/04/12 02:55:50;;;;;;;6.05;2.45;;;-1.10;99.90;;;;;;4975180;28;20047;-63
2022/04/12 02:58:18;;;;;;;14.02;3.42;;;-1.10;99.90;;;;;;4972272;28;20834;-63
2022/04/12 03:00:45;;;;;;;6.10;3.08;;;-1.10;99.90;;;;;;4972720;28;20133;-62
2022/04/12 03:03:12;;;;;;;9.30;3.28;;;-1.10;99.90;;;;;;4977275;28;20133;-64
2022/04/12 03:05:39;;;;;;;3.90;2.60;;;-1.10;99.90;;;;;;4983449;28;20160;-63
2022/04/12 03:08:07;;;;;;;4.75;2.72;;;-1.10;99.90;;;;;;4965508;28;20146;-63
2022/04/12 03:10:34;;;;;;;5.75;2.15;;;-1.10;99.90;;;;;;4975456;28;20208;-62
2022/04/12 03:13:01;;;;;;;4.40;2.50;;;-1.10;99.90;;;;;;4974841;28;20158;-63
2022/04/12 03:15:27;;;;;;;5.18;3.22;;;-1.10;99.90;;;;;;4979642;28;20043;-65
2022/04/12 03:17:54;;;;;;;12.98;3.33;;;-1.10;99.90;;;;;;4977048;28;20141;-63
2022/04/12 03:20:21;;;;;;;7.25;3.78;;;-1.10;99.90;;;;;;4973686;28;20138;-63
2022/04/12 03:22:48;;;;;;;5.63;3.42;;;-1.20;99.90;;;;;;4972659;28;20057;-63
2022/04/12 03:25:15;;;;;;;7.28;2.80;;;-1.20;99.90;;;;;;4975689;28;20053;-63
2022/04/12 03:27:42;;;;;;;3.83;2.50;;;-1.20;99.90;;;;;;4977560;28;20080;-63
2022/04/12 03:30:10;;;;;;;7.57;3.50;;;-1.30;99.90;;;;;;4981567;28;20133;-63
2022/04/12 03:32:36;;;;;;;6.00;2.75;;;-1.30;99.90;;;;;;4970480;28;20053;-64
2022/04/12 03:35:04;;;;;;;5.47;2.28;;;-1.30;99.90;;;;;;4970535;28;20217;-63
2022/04/12 03:37:30;;;;;;;8.95;3.28;;;-1.30;99.90;;;;;;4966159;28;20078;-62
2022/04/12 03:39:57;;;;;;;10.77;4.13;;;-1.30;99.90;;;;;;4975185;28;20447;-63
2022/04/12 03:42:24;;;;;;;59.67;11.95;;;-1.30;99.90;;;;;;4974288;28;20074;-63
2022/04/12 03:44:51;;;;;;;60.60;9.98;;;-1.30;99.90;;;;;;4973902;28;20054;-63
2022/04/12 03:47:18;;;;;;;52.47;10.68;;;-1.30;99.90;;;;;;4963556;28;20148;-65
2022/04/12 03:49:45;;;;;;;32.38;4.97;;;-1.40;99.90;;;;;;4971437;28;20053;-62
2022/04/12 03:52:12;;;;;;;21.75;4.20;;;-1.30;99.90;;;;;;4970661;28;20262;-62
2022/04/12 03:54:39;;;;;;;11.38;3.13;;;-1.30;99.90;;;;;;4969145;28;20162;-62
2022/04/12 03:57:06;;;;;;;19.55;4.30;;;-1.30;99.90;;;;;;4966699;28;20129;-62
2022/04/12 03:59:33;;;;;;;43.92;5.00;;;-1.30;99.90;;;;;;4966525;28;20134;-63
2022/04/12 04:02:00;;;;;;;83.38;10.52;;;-1.30;99.90;;;;;;4975909;28;20077;-66
2022/04/12 04:04:27;;;;;;;44.35;7.13;;;-1.40;99.90;;;;;;4974672;28;20077;-62
2022/04/12 04:06:58;;;;;;;46.60;6.57;;;-1.40;99.90;;;;;;4977636;28;20439;-62
2022/04/12 04:09:25;;;;;;;40.42;5.32;;;-1.40;99.90;;;;;;4978501;28;20749;-64
2022/04/12 04:11:52;;;;;;;23.38;5.30;;;-1.40;99.90;;;;;;4980386;28;20785;-63
2022/04/12 04:14:19;;;;;;;23.25;4.05;;;-1.40;99.90;;;;;;4980535;28;20133;-63
2022/04/12 04:16:45;;;;;;;21.40;6.50;;;-1.40;99.90;;;;;;4972261;28;20138;-63
2022/04/12 04:19:13;;;;;;;18.38;5.45;;;-1.40;99.90;;;;;;4975188;28;20089;-63
2022/04/12 04:21:39;;;;;;;10.00;4.20;;;-1.40;99.90;;;;;;4969556;28;20090;-65
2022/04/12 04:24:07;;;;;;;11.80;2.95;;;-1.40;99.90;;;;;;4970027;28;20439;-61
2022/04/12 04:26:33;;;;;;;18.50;3.10;;;-1.40;99.90;;;;;;4978216;28;20236;-63
2022/04/12 04:29:01;;;;;;;21.25;2.78;;;-1.30;99.90;;;;;;4971632;28;20062;-63
2022/04/12 04:31:28;;;;;;;20.33;4.10;;;-1.30;99.90;;;;;;4976364;28;20074;-61
2022/04/12 04:33:57;;;;;;;33.50;6.05;;;-1.30;99.90;;;;;;4981796;28;20077;-62
2022/04/12 04:36:23;;;;;;;15.85;4.60;;;-1.30;99.90;;;;;;4982779;28;20078;-62
2022/04/12 04:38:50;;;;;;;53.28;7.03;;;-1.20;99.90;;;;;;4984434;28;20488;-62
2022/04/12 04:41:17;;;;;;;30.17;5.65;;;-1.20;99.90;;;;;;4982235;28;20490;-62
2022/04/12 04:43:46;;;;;;;27.42;7.18;;;-1.20;99.90;;;;;;4983505;28;20555;-63
2022/04/12 04:46:13;;;;;;;31.90;4.85;;;-1.20;99.90;;;;;;4984511;28;20479;-62
2022/04/12 04:48:41;;;;;;;31.33;5.75;;;-1.10;99.90;;;;;;4983380;28;20152;-63
2022/04/12 04:51:09;;;;;;;53.17;6.53;;;-1.10;99.90;;;;;;4985122;28;20061;-63
2022/04/12 04:53:37;;;;;;;43.60;8.70;;;-1.10;99.90;;;;;;4987706;28;20046;-64
2022/04/12 04:56:05;;;;;;;52.60;7.97;;;-1.10;99.90;;;;;;4985242;28;20483;-62
2022/04/12 04:58:32;;;;;;;48.42;7.03;;;-1.00;99.90;;;;;;4984748;28;20054;-64
2022/04/12 05:00:59;;;;;;;31.73;7.65;;;-1.00;99.90;;;;;;4978518;28;20054;-62
2022/04/12 05:03:27;;;;;;;32.15;6.75;;;-0.90;99.90;;;;;;4981522;28;20118;-62
2022/04/12 05:05:54;;;;;;;27.25;7.03;;;-0.90;99.90;;;;;;4980013;28;20158;-63
2022/04/12 05:08:21;;;;;;;35.35;8.13;;;-0.80;99.90;;;;;;4978821;28;20138;-62
2022/04/12 05:10:48;;;;;;;30.33;7.32;;;-0.80;99.90;;;;;;4981136;28;20457;-63
2022/04/12 05:13:15;;;;;;;36.70;8.82;;;-0.70;99.90;;;;;;4974889;28;20054;-62
2022/04/12 05:15:42;;;;;;;49.88;9.90;;;-0.70;99.90;;;;;;4982883;28;20073;-63
2022/04/12 05:18:09;;;;;;;31.70;7.32;;;-0.60;99.90;;;;;;4978410;28;20500;-63
2022/04/12 05:20:36;;;;;;;32.45;8.35;;;-0.50;99.90;;;;;;4979591;28;20129;-63
2022/04/12 05:23:09;;;;;;;40.17;7.25;;;-0.40;99.90;;;;;;4977705;28;20043;-62
2022/04/12 05:25:36;;;;;;;28.73;7.30;;;-0.30;99.90;;;;;;4986399;28;20162;-62
2022/04/12 05:28:03;;;;;;;38.15;10.30;;;-0.10;99.90;;;;;;4970788;28;20050;-62
2022/04/12 05:30:31;;;;;;;29.88;8.98;;;0.00;99.90;;;;;;4972984;28;20758;-63
2022/04/12 05:32:58;;;;;;;35.33;7.25;;;0.10;99.90;;;;;;4973060;28;20133;-63
2022/04/12 05:35:25;;;;;;;41.83;9.25;;;0.20;99.90;;;;;;4981355;28;20444;-64
2022/04/12 05:37:53;;;;;;;29.48;5.85;;;0.50;99.90;;;;;;4973762;28;20414;-63
2022/04/12 05:40:21;;;;;;;18.85;3.70;;;0.60;99.90;;;;;;4984623;28;20046;-62
2022/04/12 05:42:49;;;;;;;15.65;2.83;;;0.80;99.90;;;;;;4976058;28;20046;-63
2022/04/12 05:45:16;;;;;;;25.98;3.17;;;1.00;99.90;;;;;;4976945;28;20065;-63
2022/04/12 05:47:51;;;;;;;10.15;2.70;;;1.10;99.90;;;;;;4976371;28;20054;-69
2022/04/12 05:50:19;;;;;;;13.73;3.15;;;1.30;99.90;;;;;;4971011;28;20043;-64
2022/04/12 05:52:47;;;;;;;15.93;3.67;;;1.40;99.90;;;;;;4973872;28;20082;-62
2022/04/12 05:55:15;;;;;;;5.97;2.03;;;1.50;99.90;;;;;;4985645;28;20046;-63
2022/04/12 05:57:56;;;;;;;3.67;1.98;;;1.80;99.90;;;;;;4983503;28;20125;-62
2022/04/12 06:00:25;;;;;;;6.32;1.95;;;2.00;99.90;;;;;;4972965;28;20461;-62
2022/04/12 06:02:53;;;;;;;4.90;1.67;;;2.10;99.90;;;;;;4980438;28;20109;-63
2022/04/12 06:05:22;;;;;;;2.60;1.98;;;2.10;99.90;;;;;;4985383;28;20045;-62
2022/04/12 06:07:49;;;;;;;3.33;1.40;;;2.30;99.90;;;;;;4983151;28;20133;-66
2022/04/12 06:10:18;;;;;;;4.10;1.45;;;2.30;99.90;;;;;;4978569;28;20145;-63
2022/04/12 06:12:45;;;;;;;6.68;2.03;;;2.40;99.90;;;;;;4974845;28;20450;-63
2022/04/12 06:15:13;;;;;;;12.05;2.63;;;2.40;99.90;;;;;;4984811;28;20457;-62
2022/04/12 06:17:40;;;;;;;9.77;1.55;;;2.50;99.90;;;;;;4976244;28;20117;-64
2022/04/12 06:20:12;;;;;;;2.55;1.15;;;2.60;99.90;;;;;;4977488;28;20129;-63
2022/04/12 06:22:39;;;;;;;2.40;1.17;;;2.70;99.90;;;;;;4979879;28;20121;-65
2022/04/12 06:25:08;;;;;;;7.25;2.20;;;2.80;99.90;;;;;;4981481;28;20153;-63
2022/04/12 06:27:43;;;;;;;4.88;1.73;;;2.90;99.90;;;;;;4990191;28;20135;-62
2022/04/12 06:30:13;;;;;;;4.45;1.92;;;3.00;99.90;;;;;;4980851;28;20074;-65
2022/04/12 06:32:40;;;;;;;5.45;1.92;;;3.10;99.90;;;;;;4980958;28;20050;-64
2022/04/12 06:35:12;;;;;;;7.57;2.22;;;3.10;99.90;;;;;;4979545;28;20134;-62
2022/04/12 06:37:41;;;;;;;4.40;2.10;;;3.20;99.90;;;;;;4976278;28;20121;-65
2022/04/12 06:40:10;;;;;;;2.03;1.42;;;3.20;99.90;;;;;;4976333;28;20108;-63
2022/04/12 06:42:37;;;;;;;8.18;1.52;;;3.20;99.90;;;;;;4966242;28;20098;-65
2022/04/12 06:45:08;;;;;;;13.93;2.63;;;3.30;99.90;;;;;;4974871;28;20042;-63
2022/04/12 06:47:41;;;;;;;8.93;1.70;;;3.40;99.90;;;;;;4976943;28;20038;-62
2022/04/12 06:50:10;;;;;;;7.47;1.85;;;3.40;99.90;;;;;;4980560;28;20078;-63
2022/04/12 06:52:37;;;;;;;3.95;1.55;;;3.40;99.90;;;;;;4976954;28;20764;-63
2022/04/12 06:55:05;;;;;;;4.22;2.10;;;3.50;99.90;;;;;;4984030;28;20160;-64
2022/04/12 06:57:33;;;;;;;2.88;1.38;;;3.60;99.90;;;;;;4976627;28;20442;-66
2022/04/12 07:00:01;;;;;;;5.93;2.03;;;3.60;99.90;;;;;;4978754;28;20069;-62
2022/04/12 07:02:28;;;;;;;5.88;1.50;;;3.70;99.90;;;;;;4983322;28;20050;-62
2022/04/12 07:04:55;;;;;;;7.32;1.00;;;3.80;99.90;;;;;;4996117;28;20072;-64
2022/04/12 07:07:22;;;;;;;4.18;1.40;;;3.80;99.90;;;;;;4981686;28;20138;-64
2022/04/12 07:09:49;;;;;;;6.72;1.75;;;3.80;99.90;;;;;;4980866;28;20066;-63
2022/04/12 07:12:16;;;;;;;4.03;1.38;;;3.90;99.90;;;;;;4970311;28;20050;-65
2022/04/12 07:14:42;;;;;;;5.05;1.42;;;3.90;99.90;;;;;;4979798;28;20141;-63
2022/04/12 07:17:09;;;;;;;5.70;1.45;;;4.00;99.90;;;;;;4983037;28;20042;-63
2022/04/12 07:19:36;;;;;;;3.03;1.17;;;4.10;99.90;;;;;;4980038;28;20166;-66
2022/04/12 07:22:04;;;;;;;2.50;1.10;;;4.10;99.90;;;;;;4977410;28;20053;-63
2022/04/12 07:24:31;;;;;;;4.90;1.55;;;4.20;99.90;;;;;;4982290;28;20046;-63
2022/04/12 07:26:58;;;;;;;6.93;2.47;;;4.20;99.90;;;;;;4980026;28;20408;-69
2022/04/12 07:29:25;;;;;;;3.00;0.75;;;4.20;99.90;;;;;;4980897;28;21327;-63
2022/04/12 07:31:52;;;;;;;4.85;1.50;;;4.30;99.90;;;;;;4984280;28;20645;-63
2022/04/12 07:34:19;;;;;;;5.00;1.58;;;4.40;99.90;;;;;;4976913;28;20057;-65
2022/04/12 07:36:53;;;;;;;5.32;2.10;;;4.50;99.90;;;;;;4981776;28;20854;-63
2022/04/12 07:39:21;;;;;;;5.38;2.40;;;4.60;99.90;;;;;;4973177;28;20042;-62
2022/04/12 07:41:49;;;;;;;4.72;1.92;;;4.70;99.90;;;;;;4976892;28;20137;-64
2022/04/12 07:44:17;;;;;;;4.72;1.45;;;4.60;99.90;;;;;;4969595;28;20384;-63
2022/04/12 07:46:45;;;;;;;3.13;1.48;;;4.60;99.90;;;;;;4977622;28;20080;-65
2022/04/12 07:49:12;;;;;;;5.18;1.55;;;4.80;99.90;;;;;;4975637;28;20436;-62
2022/04/12 07:51:39;;;;;;;5.57;1.65;;;4.70;99.90;;;;;;4974731;28;20065;-63
2022/04/12 07:54:06;;;;;;;6.35;1.52;;;4.70;99.90;;;;;;4966707;28;20146;-62
2022/04/12 07:56:34;;;;;;;6.32;1.98;;;4.70;99.90;;;;;;4980240;28;20137;-62
2022/04/12 07:59:01;;;;;;;8.68;1.95;;;4.70;99.90;;;;;;4981880;28;20513;-63
2022/04/12 08:01:28;;;;;;;4.57;2.40;;;4.80;99.90;;;;;;4970896;28;20039;-62
2022/04/12 08:03:55;;;;;;;4.47;1.88;;;4.80;99.90;;;;;;4977934;28;20112;-62
2022/04/12 08:06:22;;;;;;;2.20;1.13;;;4.80;99.90;;;;;;4973988;28;20121;-62
2022/04/12 08:08:49;;;;;;;3.80;1.02;;;4.70;99.90;;;;;;4981354;28;20132;-62
2022/04/12 08:11:16;;;;;;;8.00;2.35;;;4.70;99.90;;;;;;4976860;28;20121;-63
2022/04/12 08:13:44;;;;;;;3.50;1.10;;;4.70;99.90;;;;;;4982179;28;20176;-62
2022/04/12 08:16:11;;;;;;;4.13;1.25;;;4.80;99.90;;;;;;4986447;28;20702;-62
2022/04/12 08:18:44;;;;;;;5.18;1.33;;;4.80;99.90;;;;;;4971193;28;20720;-63
2022/04/12 08:21:11;;;;;;;5.70;2.58;;;4.90;99.90;;;;;;4985923;28;20133;-62
2022/04/12 08:23:39;;;;;;;2.60;1.52;;;4.90;99.90;;;;;;4976459;28;20125;-65
2022/04/12 08:26:06;;;;;;;3.00;1.00;;;5.00;99.90;;;;;;4978637;28;20074;-63
2022/04/12 08:28:32;;;;;;;2.38;1.30;;;4.80;99.90;;;;;;4985905;28;20137;-63
2022/04/12 08:30:59;;;;;;;4.25;1.58;;;4.90;99.90;;;;;;4974613;28;20047;-62
2022/04/12 08:33:26;;;;;;;3.08;1.35;;;5.00;99.90;;;;;;4982061;28;20045;-63
2022/04/12 08:35:53;;;;;;;5.15;2.00;;;5.00;99.90;;;;;;4975092;28;20077;-64
2022/04/12 08:38:20;;;;;;;7.03;1.15;;;5.00;99.90;;;;;;4973226;28;20093;-63
2022/04/12 08:40:47;;;;;;;11.65;2.05;;;5.00;99.90;;;;;;4984517;28;20145;-63
2022/04/12 08:43:16;;;;;;;4.25;1.52;;;5.00;99.90;;;;;;4985453;28;20360;-62
2022/04/12 08:45:45;;;;;;;5.93;1.27;;;5.10;99.90;;;;;;4986930;28;20054;-63
2022/04/12 08:48:14;;;;;;;4.88;1.67;;;5.10;99.90;;;;;;4983557;28;20067;-63
2022/04/12 08:50:42;;;;;;;5.63;1.73;;;5.00;99.90;;;;;;4985218;28;20710;-63
2022/04/12 08:53:10;;;;;;;10.55;2.25;;;5.10;99.90;;;;;;4979217;28;20055;-66
2022/04/12 08:55:39;;;;;;;3.40;1.40;;;5.00;99.90;;;;;;4980316;28;20046;-65
2022/04/12 08:58:06;;;;;;;8.18;3.08;;;5.10;99.90;;;;;;4979786;28;20053;-63
2022/04/12 09:00:33;;;;;;;4.55;1.98;;;5.10;99.90;;;;;;4978200;28;20051;-63
2022/04/12 09:03:00;;;;;;;3.40;1.50;;;5.10;99.90;;;;;;4982385;28;20141;-62
2022/04/12 09:05:27;;;;;;;5.47;2.20;;;5.10;99.90;;;;;;4977725;28;20069;-62
2022/04/12 09:07:55;;;;;;;4.10;1.73;;;5.20;99.90;;;;;;5013218;28;20385;-65
2022/04/12 09:10:33;;;;;;;4.80;1.17;;;5.20;99.90;;;;;;4983557;28;20045;-62
2022/04/12 09:13:14;;;;;;;3.83;1.58;;;5.30;99.90;;;;;;4976768;28;20137;-63
2022/04/12 09:15:44;;;;;;;7.72;2.58;;;5.40;99.90;;;;;;4983880;28;20047;-62
2022/04/12 09:18:39;;;;;;;6.30;2.20;;;5.50;99.90;;;;;;4979875;28;20519;-63
2022/04/12 09:21:20;;;;;;;5.20;1.50;;;5.50;99.90;;;;;;4975736;28;20111;-64
2022/04/12 09:23:52;;;;;;;6.10;3.08;;;5.50;99.90;;;;;;4980079;28;20140;-62
2022/04/12 09:26:26;;;;;;;9.93;2.30;;;5.60;99.90;;;;;;4981323;28;20050;-63
2022/04/12 09:28:55;;;;;;;8.32;2.35;;;5.60;99.90;;;;;;4983437;28;20153;-69
2022/04/12 09:31:22;;;;;;;9.00;2.30;;;5.80;99.90;;;;;;4983759;28;20145;-63
2022/04/12 09:33:51;;;;;;;8.40;1.85;;;5.90;99.90;;;;;;4980885;28;20038;-62
2022/04/12 09:36:19;;;;;;;12.73;2.63;;;5.90;99.90;;;;;;4979688;28;20138;-62
2022/04/12 09:38:47;;;;;;;7.63;1.65;;;5.90;99.90;;;;;;4979314;28;20188;-63
2022/04/12 09:41:23;;;;;;;4.05;1.77;;;5.90;99.90;;;;;;4979247;28;20121;-63
2022/04/12 09:43:56;;;;;;;6.70;1.85;;;6.00;99.90;;;;;;4981160;28;20042;-63
2022/04/12 09:46:24;;;;;;;5.55;1.63;;;6.10;99.90;;;;;;4981456;28;20496;-63
2022/04/12 09:48:55;;;;;;;5.97;1.50;;;6.30;99.90;;;;;;4973201;28;20050;-66
2022/04/12 09:51:23;;;;;;;2.40;1.45;;;6.20;99.90;;;;;;4985538;28;20105;-63
2022/04/12 09:53:51;;;;;;;7.15;2.08;;;6.20;99.90;;;;;;4985776;28;20043;-63
2022/04/12 09:56:22;;;;;;;12.32;2.72;;;6.00;99.90;;;;;;4984386;28;20643;-63
2022/04/12 09:58:55;;;;;;;5.28;2.15;;;6.00;99.90;;;;;;4972819;28;20051;-63
2022/04/12 10:01:23;;;;;;;6.47;1.90;;;5.90;99.90;;;;;;4978916;28;20242;-63
2022/04/12 10:03:55;;;;;;;5.55;1.50;;;5.80;99.90;;;;;;4971605;28;20110;-63
2022/04/12 10:06:24;;;;;;;3.67;2.10;;;5.90;99.90;;;;;;4984148;28;20077;-63
2022/04/12 10:08:56;;;;;;;3.95;1.98;;;5.80;99.90;;;;;;4982737;28;20093;-65
2022/04/12 10:11:23;;;;;;;2.83;1.40;;;5.90;99.90;;;;;;4981099;28;20106;-63
2022/04/12 10:13:51;;;;;;;5.55;2.40;;;5.80;99.90;;;;;;4977394;28;20081;-63
2022/04/12 10:16:22;;;;;;;5.45;2.08;;;5.80;99.90;;;;;;4979570;28;20054;-62
2022/04/12 10:18:50;;;;;;;14.10;2.38;;;5.90;99.90;;;;;;4972114;28;20042;-63
2022/04/12 10:21:19;;;;;;;4.70;1.60;;;6.00;99.90;;;;;;4982377;28;20123;-64
2022/04/12 10:23:51;;;;;;;5.80;2.05;;;6.00;99.90;;;;;;4975010;28;20120;-63
2022/04/12 10:26:21;;;;;;;3.25;0.95;;;6.10;99.90;;;;;;4991466;28;20182;-62
2022/04/12 10:28:54;;;;;;;8.57;2.45;;;6.10;99.90;;;;;;4973801;28;20062;-64
2022/04/12 10:31:24;;;;;;;3.03;1.35;;;6.20;99.90;;;;;;4984947;28;20201;-63
2022/04/12 10:34:12;;;;;;;6.55;1.52;;;6.20;99.90;;;;;;4972885;28;20058;-64
2022/04/12 10:37:04;;;;;;;6.07;1.65;;;6.20;99.90;;;;;;4972935;28;20058;-62
2022/04/12 10:40:01;;;;;;;12.20;2.25;;;6.10;99.90;;;;;;4979752;28;20042;-63
2022/04/12 10:42:31;;;;;;;3.95;1.40;;;6.20;99.90;;;;;;4983482;28;20136;-63
2022/04/12 10:45:02;;;;;;;15.75;2.53;;;6.00;99.90;;;;;;4978419;28;20485;-62
2022/04/12 10:47:36;;;;;;;;;;;6.00;99.90;;;;;;4980991;28;20611;-63
2022/04/12 10:50:06;;;;;;;4.70;1.90;;;6.10;99.90;;;;;;4982943;28;19957;-62
2022/04/12 10:52:42;;;;;;;12.25;2.00;;;6.10;99.90;;;;;;4979633;28;20753;-62
2022/04/12 10:55:25;;;;;;;7.90;3.25;;;6.00;99.90;;;;;;4969401;28;20058;-64
2022/04/12 10:57:54;;;;;;;2.33;1.55;;;6.10;99.90;;;;;;4971897;28;20137;-63
2022/04/12 11:00:23;;;;;;;4.63;1.27;;;6.20;99.90;;;;;;4974794;28;20877;-65
2022/04/12 11:02:58;;;;;;;11.02;2.35;;;6.30;99.90;;;;;;4980347;28;20038;-63
2022/04/12 11:05:42;;;;;;;6.28;1.88;;;6.30;99.90;;;;;;4971223;28;20043;-63
2022/04/12 11:08:15;;;;;;;8.68;1.88;;;6.30;99.90;;;;;;4974863;28;20049;-63
2022/04/12 11:11:04;;;;;;;2.33;1.45;;;6.10;99.90;;;;;;4981467;28;20042;-63
2022/04/12 11:13:33;;;;;;;5.93;2.25;;;6.10;99.90;;;;;;4977885;28;20109;-62
2022/04/12 11:16:08;;;;;;;6.40;2.28;;;6.10;99.90;;;;;;4980866;28;20038;-63
2022/04/12 11:18:49;;;;;;;3.75;2.38;;;6.20;99.90;;;;;;4975486;28;20116;-63
2022/04/12 11:21:27;;;;;;;10.77;2.42;;;6.30;99.90;;;;;;4972989;28;20120;-63
2022/04/12 11:24:01;;;;;;;3.13;1.63;;;6.10;99.90;;;;;;4970793;28;20058;-62
2022/04/12 11:26:44;;;;;;;3.55;1.92;;;6.10;99.90;;;;;;4975631;28;20581;-62
2022/04/12 11:29:13;;;;;;;6.20;2.47;;;6.30;99.90;;;;;;4980073;28;20136;-63
2022/04/12 11:31:45;;;;;;;4.55;1.85;;;6.40;99.90;;;;;;4984049;28;20221;-63
2022/04/12 11:34:12;;;;;;;6.65;1.83;;;6.40;99.90;;;;;;4976969;28;20517;-63
2022/04/12 11:36:42;;;;;;;4.05;1.83;;;6.40;99.90;;;;;;4975761;28;20487;-63
2022/04/12 11:39:09;;;;;;;6.72;2.00;;;6.40;99.90;;;;;;4973101;28;20513;-62
2022/04/12 11:41:36;;;;;;;5.32;2.30;;;6.50;99.90;;;;;;4984837;28;20049;-63
2022/04/12 11:44:04;;;;;;;2.50;1.90;;;6.60;99.90;;;;;;4988634;28;20073;-62
2022/04/12 11:46:33;;;;;;;7.65;2.00;;;6.60;99.90;;;;;;4974382;28;20047;-63
2022/04/12 11:49:04;;;;;;;10.10;2.60;;;6.60;99.90;;;;;;4985305;28;20045;-62
2022/04/12 11:51:37;;;;;;;2.92;2.00;;;6.70;99.90;;;;;;4987067;28;20129;-65
2022/04/12 11:54:24;;;;;;;10.50;2.17;;;6.80;99.90;;;;;;4982785;28;20070;-63
2022/04/12 11:57:01;;;;;;;20.42;2.13;;;6.70;99.90;;;;;;4982629;28;20056;-62
2022/04/12 11:59:30;;;;;;;3.55;1.98;;;6.90;99.90;;;;;;4982715;28;20058;-63
2022/04/12 12:02:02;;;;;;;8.95;2.28;;;7.10;99.90;;;;;;4980370;28;20128;-63
2022/04/12 12:04:34;;;;;;;4.88;1.85;;;7.20;99.90;;;;;;4986092;28;20192;-65
2022/04/12 12:07:05;;;;;;;2.95;1.40;;;7.20;99.90;;;;;;4979296;28;20113;-63
2022/04/12 12:09:34;;;;;;;2.20;1.73;;;7.30;99.90;;;;;;4983186;28;20105;-63
2022/04/12 12:12:05;;;;;;;6.53;1.85;;;7.40;99.90;;;;;;4981356;28;20530;-63
2022/04/12 12:14:32;;;;;;;7.30;1.42;;;7.40;99.90;;;;;;4966846;28;20145;-62
2022/04/12 12:17:20;;;;;;;6.22;1.70;;;7.30;99.90;;;;;;4981367;28;20101;-62
2022/04/12 12:19:47;;;;;;;10.55;2.38;;;7.10;99.90;;;;;;4982266;28;20053;-65
2022/04/12 12:22:15;;;;;;;8.20;1.67;;;7.30;99.90;;;;;;4984762;28;20053;-63
2022/04/12 12:24:56;;;;;;;3.47;1.50;;;7.50;99.90;;;;;;4975309;28;20394;-63
2022/04/12 12:27:34;;;;;;;4.15;1.65;;;7.60;99.90;;;;;;4983769;28;20081;-63
2022/04/12 12:30:08;;;;;;;5.28;1.60;;;7.70;99.90;;;;;;4984098;28;20046;-64
2022/04/12 12:32:38;;;;;;;6.80;1.50;;;7.90;99.90;;;;;;4983122;28;20093;-62
2022/04/12 12:35:10;;;;;;;3.28;2.33;;;8.00;99.90;;;;;;4972995;28;20109;-63
2022/04/12 12:37:38;;;;;;;4.70;2.03;;;7.70;99.90;;;;;;4987206;28;20713;-63
2022/04/12 12:40:25;;;;;;;11.23;2.53;;;7.60;99.90;;;;;;4987245;28;20129;-62
2022/04/12 12:42:53;;;;;;;11.60;2.38;;;7.50;99.90;;;;;;4985404;28;20061;-62
2022/04/12 12:45:22;;;;;;;8.75;1.55;;;7.50;99.90;;;;;;4969014;28;20129;-63
2022/04/12 12:47:55;;;;;;;1.15;1.00;;;7.60;99.90;;;;;;4971647;28;20050;-65
2022/04/12 12:50:24;;;;;;;5.57;1.40;;;7.50;99.90;;;;;;4981419;28;20051;-63
2022/04/12 12:53:03;;;;;;;4.57;1.63;;;7.30;99.90;;;;;;4978846;28;20046;-65
2022/04/12 12:55:32;;;;;;;3.50;1.45;;;7.10;99.90;;;;;;4984376;28;20038;-62
2022/04/12 12:58:08;;;;;;;12.47;3.80;;;7.20;99.90;;;;;;4986129;28;20157;-64
2022/04/12 13:00:36;;;;;;;6.22;1.60;;;7.20;99.90;;;;;;4981541;28;20078;-62
2022/04/12 13:03:13;;;;;;;2.83;1.50;;;7.50;99.90;;;;;;4985136;28;20046;-63